Terminal Aerodrome Forecast
Issued by NWS

Current Version | Previous Version | Text Only | Print | Product List | Glossary Off
Versions: 1 2 3 4 5 6 7 8 9 10 11 12 13 14 15 16 17 18 19 20

000
FTUS41 KILN 241730
TAFLCK
TAF
KLCK 241730Z 2418/2518 19020G30KT P6SM FEW045 BKN200
     FM250000 18010G22KT P6SM SCT045 BKN120
     FM250300 19014G22KT 6SM -SHRA VCTS OVC040CB
      TEMPO 2503/2506 4SM TSRA BR OVC025CB
     FM250800 28012G20KT P6SM VCSH OVC040
     FM251000 28012G20KT P6SM OVC045
     FM251400 26016G26KT P6SM OVC025=

USA.gov is the U.S. government's official web portal to all federal, state and local government web resources and services.